KATW/ATW METAR and TAF weather

Enter ICAO airport designator
Station Type Date Time Source
KATW METAR 2018/01/17 06:35 UTC NOAA

KATW 170635Z AUTO 25008KT 10SM CLR M14/M16 A3042 RMK AO2


Station Type Date Time Source
KATW Decoded METAR 2018/01/17 06:35 UTC NOAA

Appleton / Outagamie, WI, United States (KATW) 44-15N 088-31W
Jan 17, 2018 - 01:35 AM EST / 2018.01.17 0635 UTC
Wind: from the WSW (250 degrees) at 9 MPH (8 KT):0
Visibility: 10 mile(s):0
Sky conditions: clear
Temperature: 6 F (-14 C)
Windchill: -7 F (-22 C):2
Dew Point: 3 F (-16 C)
Relative Humidity: 84%
Pressure (altimeter): 30.42 in. Hg (1030 hPa)
ob: KATW 170635Z AUTO 25008KT 10SM CLR M14/M16 A3042 RMK AO2
cycle: 6

Station Type Date Time Source
KATW TAF 2018/01/17 06:22 UTC NOAA

TAF KATW 170520Z 1706/1806 26008KT P6SM SCT200
FM171200 25010KT P6SM SCT200 WS019/28035KT
FM171500 24013G20KT P6SM SCT250 WS020/27040KT
FM171800 24016G26KT 6SM BLSN SKC WS020/29045KT
FM180100 24015G23KT P6SM SKC WS018/27055KT


Example: see airport list